Time;durP1;ratioP1;P1;durP2;ratioP2;P2;SDS_P1;SDS_P2;PMS_P1;PMS_P2;Temp;Humidity;BMP_temperature;BMP_pressure;BME280_temperature;BME280_humidity;BME280_pressure;Samples;Min_cycle;Max_cycle;Signal;HPM_P1;HPM_P2
2024/01/21 00:01:41;;;;;;;22.20;10.63;;;0.60;99.90;;;;;;5055723;28;20485;-56
2024/01/21 00:04:08;;;;;;;17.00;10.00;;;0.70;99.90;;;;;;5055499;28;20499;-56
2024/01/21 00:06:36;;;;;;;14.07;9.17;;;0.70;99.90;;;;;;5055175;28;20445;-56
2024/01/21 00:09:03;;;;;;;15.67;10.13;;;0.70;99.80;;;;;;5055299;28;20485;-56
2024/01/21 00:11:30;;;;;;;14.90;9.20;;;0.70;99.90;;;;;;5054892;28;21016;-55
2024/01/21 00:13:57;;;;;;;12.93;8.90;;;0.70;99.90;;;;;;5055157;28;20446;-55
2024/01/21 00:16:23;;;;;;;15.87;9.63;;;0.70;99.80;;;;;;5055091;28;20448;-55
2024/01/21 00:18:50;;;;;;;13.33;9.13;;;0.70;99.80;;;;;;5055156;28;20445;-55
2024/01/21 00:21:17;;;;;;;15.30;10.00;;;0.70;99.90;;;;;;5055924;28;20465;-56
2024/01/21 00:23:46;;;;;;;17.40;9.43;;;0.70;99.80;;;;;;5055172;28;20446;-55
2024/01/21 00:26:13;;;;;;;14.37;9.17;;;0.70;99.80;;;;;;5055155;28;20446;-56
2024/01/21 00:28:39;;;;;;;12.90;8.50;;;0.70;99.80;;;;;;5054935;28;20488;-55
2024/01/21 00:31:06;;;;;;;12.10;8.20;;;0.70;99.80;;;;;;5054560;28;21010;-55
2024/01/21 00:33:33;;;;;;;13.27;9.40;;;0.80;99.70;;;;;;5054883;28;20457;-55
2024/01/21 00:35:59;;;;;;;14.20;8.53;;;0.80;99.60;;;;;;5054854;28;20453;-55
2024/01/21 00:38:26;;;;;;;15.07;9.37;;;0.80;99.60;;;;;;5054637;28;20446;-55
2024/01/21 00:40:54;;;;;;;13.27;8.87;;;0.80;99.50;;;;;;5054556;28;20472;-55
2024/01/21 00:43:21;;;;;;;13.73;8.90;;;0.80;99.50;;;;;;5055280;28;20441;-55
2024/01/21 00:45:47;;;;;;;13.47;8.97;;;0.80;99.50;;;;;;5057185;28;20446;-55
2024/01/21 00:48:14;;;;;;;15.23;8.93;;;0.80;99.50;;;;;;5056080;28;20445;-55
2024/01/21 00:50:41;;;;;;;11.50;8.17;;;0.80;99.40;;;;;;5055297;28;21045;-55
2024/01/21 00:53:07;;;;;;;13.87;8.43;;;0.80;99.40;;;;;;5054475;28;20468;-56
2024/01/21 00:55:34;;;;;;;15.67;8.90;;;0.80;99.50;;;;;;5054837;28;20453;-55
2024/01/21 00:58:02;;;;;;;13.60;8.10;;;0.80;99.40;;;;;;5054026;28;20446;-55
2024/01/21 01:00:29;;;;;;;13.30;8.63;;;0.80;99.30;;;;;;5054102;28;20438;-55
2024/01/21 01:02:55;;;;;;;11.93;7.83;;;0.80;99.30;;;;;;5053174;28;20445;-55
2024/01/21 01:05:22;;;;;;;15.50;9.77;;;0.80;99.40;;;;;;5054378;28;20816;-55
2024/01/21 01:07:49;;;;;;;14.50;8.93;;;0.80;99.40;;;;;;5054517;28;20449;-55
2024/01/21 01:10:16;;;;;;;12.03;8.03;;;0.80;99.30;;;;;;5054197;28;20508;-56
2024/01/21 01:12:43;;;;;;;10.90;7.83;;;0.80;99.30;;;;;;5053873;28;20507;-55
2024/01/21 01:15:12;;;;;;;11.17;7.67;;;0.80;99.30;;;;;;5053811;28;20962;-55
2024/01/21 01:17:38;;;;;;;11.70;7.10;;;0.80;99.30;;;;;;5054232;28;20481;-55
2024/01/21 01:20:06;;;;;;;11.30;8.57;;;0.80;99.20;;;;;;5053734;28;20441;-55
2024/01/21 01:22:33;;;;;;;11.50;8.00;;;0.80;99.10;;;;;;5054057;28;20465;-56
2024/01/21 01:25:00;;;;;;;11.90;8.10;;;0.80;99.20;;;;;;5054148;28;20445;-55
2024/01/21 01:27:27;;;;;;;12.90;8.27;;;0.80;99.10;;;;;;5054573;28;20468;-55
2024/01/21 01:29:53;;;;;;;12.00;8.67;;;0.80;99.10;;;;;;5053989;28;20481;-55
2024/01/21 01:32:21;;;;;;;14.30;8.07;;;0.80;99.10;;;;;;5053999;28;20461;-54
2024/01/21 01:34:49;;;;;;;12.00;7.63;;;0.80;99.10;;;;;;5053989;28;20453;-55
2024/01/21 01:37:16;;;;;;;10.63;7.20;;;0.90;99.00;;;;;;5054236;28;20475;-54
2024/01/21 01:39:43;;;;;;;12.90;8.10;;;0.90;99.00;;;;;;5054121;28;20445;-55
2024/01/21 01:42:09;;;;;;;11.53;8.20;;;0.90;98.90;;;;;;5054104;28;20489;-55
2024/01/21 01:44:40;;;;;;;13.93;8.70;;;0.90;98.90;;;;;;5054229;28;20446;-55
2024/01/21 01:47:07;;;;;;;12.77;9.17;;;0.90;98.80;;;;;;5054092;28;20426;-55
2024/01/21 01:49:37;;;;;;;13.50;8.57;;;0.90;98.90;;;;;;5054143;28;20508;-55
2024/01/21 01:52:04;;;;;;;13.80;9.13;;;0.90;98.90;;;;;;5053615;28;20477;-55
2024/01/21 01:54:34;;;;;;;12.63;8.60;;;0.90;99.00;;;;;;5053450;28;20452;-55
2024/01/21 01:57:02;;;;;;;15.40;8.90;;;0.90;99.10;;;;;;5053654;28;20452;-56
2024/01/21 01:59:30;;;;;;;11.87;8.50;;;0.80;99.00;;;;;;5053445;28;20473;-55
2024/01/21 02:01:57;;;;;;;13.30;8.67;;;0.90;99.00;;;;;;5052937;28;20838;-55
2024/01/21 02:04:24;;;;;;;13.27;8.80;;;0.90;99.10;;;;;;5053392;28;20452;-55
2024/01/21 02:06:53;;;;;;;15.30;9.97;;;0.90;99.10;;;;;;5053277;28;20438;-55
2024/01/21 02:09:19;;;;;;;14.00;9.27;;;0.90;99.00;;;;;;5053389;28;20528;-55
2024/01/21 02:11:46;;;;;;;15.03;9.80;;;0.90;98.90;;;;;;5053228;28;20465;-55
2024/01/21 02:14:13;;;;;;;11.30;8.47;;;0.90;99.00;;;;;;5052935;28;20478;-55
2024/01/21 02:16:40;;;;;;;14.10;9.03;;;0.90;99.00;;;;;;5053091;28;20481;-55
2024/01/21 02:19:17;;;;;;;14.47;9.27;;;0.90;99.10;;;;;;5053068;28;20445;-55
2024/01/21 02:21:44;;;;;;;14.00;8.93;;;0.90;98.90;;;;;;5053678;28;20469;-55
2024/01/21 02:24:12;;;;;;;15.73;9.13;;;0.90;98.90;;;;;;5053196;28;20453;-55
2024/01/21 02:26:39;;;;;;;14.80;9.10;;;0.90;98.90;;;;;;5053174;28;20457;-54
2024/01/21 02:29:06;;;;;;;14.37;9.90;;;1.00;98.90;;;;;;5053100;28;20461;-54
2024/01/21 02:31:33;;;;;;;16.10;9.50;;;1.00;98.70;;;;;;5052963;28;20466;-55
2024/01/21 02:33:59;;;;;;;14.43;9.47;;;1.00;98.70;;;;;;5053097;28;20445;-55
2024/01/21 02:36:26;;;;;;;13.93;9.27;;;1.00;98.70;;;;;;5052754;28;20442;-55
2024/01/21 02:38:53;;;;;;;13.90;8.50;;;1.00;98.70;;;;;;5052945;28;20924;-55
2024/01/21 02:41:21;;;;;;;15.93;8.80;;;0.90;98.70;;;;;;5052931;28;20469;-55
2024/01/21 02:43:48;;;;;;;14.97;10.30;;;0.90;98.70;;;;;;5054063;28;20452;-55
2024/01/21 02:46:17;;;;;;;14.30;9.00;;;0.90;98.50;;;;;;5052842;28;20449;-55
2024/01/21 02:48:44;;;;;;;15.07;10.10;;;0.90;98.50;;;;;;5053146;28;20452;-55
2024/01/21 02:51:13;;;;;;;12.80;8.87;;;0.90;98.50;;;;;;5052536;28;21018;-54
2024/01/21 02:53:40;;;;;;;13.23;9.50;;;0.90;98.40;;;;;;5052472;28;20453;-54
2024/01/21 02:56:05;;;;;;;15.77;9.80;;;1.00;98.50;;;;;;5052950;28;20442;-54
2024/01/21 02:58:33;;;;;;;16.03;9.63;;;1.10;98.20;;;;;;5052449;28;20453;-54
2024/01/21 03:01:00;;;;;;;14.40;9.10;;;1.10;98.20;;;;;;5052711;28;20219;-54
2024/01/21 03:03:27;;;;;;;15.00;9.20;;;1.00;98.20;;;;;;5052801;28;20458;-54
2024/01/21 03:05:54;;;;;;;16.23;9.43;;;1.00;98.30;;;;;;5052980;28;20540;-54
2024/01/21 03:08:20;;;;;;;14.27;9.60;;;0.90;98.60;;;;;;5052813;28;20444;-55
2024/01/21 03:10:47;;;;;;;12.13;9.60;;;0.90;98.30;;;;;;5053605;28;20489;-54
2024/01/21 03:13:14;;;;;;;13.63;8.40;;;0.90;98.50;;;;;;5052736;28;20447;-54
2024/01/21 03:15:42;;;;;;;13.03;8.20;;;0.90;98.50;;;;;;5052688;28;20449;-54
2024/01/21 03:18:08;;;;;;;16.93;9.60;;;0.90;98.50;;;;;;5052383;28;20939;-54
2024/01/21 03:20:35;;;;;;;16.00;9.63;;;0.90;98.50;;;;;;5052695;28;20854;-54
2024/01/21 03:23:02;;;;;;;18.03;9.60;;;0.90;98.60;;;;;;5052387;28;20838;-53
2024/01/21 03:25:28;;;;;;;12.57;8.67;;;0.80;98.70;;;;;;5054519;28;20468;-54
2024/01/21 03:27:55;;;;;;;12.53;9.23;;;0.70;98.70;;;;;;5057004;28;20452;-53
2024/01/21 03:30:22;;;;;;;14.33;9.27;;;0.70;98.90;;;;;;5055936;28;20488;-54
2024/01/21 03:32:50;;;;;;;14.60;9.03;;;0.60;99.10;;;;;;5056092;28;20441;-54
2024/01/21 03:35:16;;;;;;;14.73;8.93;;;0.60;99.20;;;;;;5055992;28;20442;-54
2024/01/21 03:37:43;;;;;;;13.23;9.10;;;0.60;99.20;;;;;;5056125;28;20441;-53
2024/01/21 03:40:10;;;;;;;12.37;8.80;;;0.60;99.30;;;;;;5056924;28;20446;-54
2024/01/21 03:42:37;;;;;;;13.60;8.97;;;0.50;99.20;;;;;;5055984;28;20477;-54
2024/01/21 03:45:05;;;;;;;14.70;8.80;;;0.50;99.20;;;;;;5055678;28;20452;-54
2024/01/21 03:47:31;;;;;;;13.50;8.33;;;0.50;99.10;;;;;;5055800;28;20438;-54
2024/01/21 03:50:00;;;;;;;13.33;9.50;;;0.50;99.10;;;;;;5055645;28;20477;-53
2024/01/21 03:52:27;;;;;;;17.20;9.60;;;0.50;99.10;;;;;;5055334;28;20500;-53
2024/01/21 03:54:54;;;;;;;16.47;9.23;;;0.50;99.40;;;;;;5055689;28;20441;-53
2024/01/21 03:57:21;;;;;;;14.70;8.93;;;0.60;99.60;;;;;;5055645;28;20449;-54
2024/01/21 03:59:47;;;;;;;13.50;9.20;;;0.60;99.20;;;;;;5055307;28;20803;-54
2024/01/21 04:02:14;;;;;;;17.53;9.67;;;0.60;99.10;;;;;;5057451;28;20583;-54
2024/01/21 04:04:41;;;;;;;14.87;9.10;;;0.60;99.10;;;;;;5057596;28;20453;-53
2024/01/21 04:07:09;;;;;;;14.10;8.90;;;0.60;99.10;;;;;;5056700;28;20445;-53
2024/01/21 04:09:35;;;;;;;14.00;8.87;;;0.50;99.10;;;;;;5055778;28;20955;-53
2024/01/21 04:12:02;;;;;;;12.10;8.27;;;0.60;99.30;;;;;;5055164;28;20870;-53
2024/01/21 04:14:29;;;;;;;12.90;8.60;;;0.60;99.30;;;;;;5055694;28;20448;-53
2024/01/21 04:16:55;;;;;;;14.37;9.00;;;0.60;99.20;;;;;;5055857;28;20446;-53
2024/01/21 04:19:22;;;;;;;13.70;8.17;;;0.50;99.30;;;;;;5055287;28;20940;-53
2024/01/21 04:21:49;;;;;;;13.20;9.80;;;0.50;99.30;;;;;;5055301;28;20886;-54
2024/01/21 04:24:17;;;;;;;18.53;10.30;;;0.50;99.40;;;;;;5055225;28;20817;-53
2024/01/21 04:26:43;;;;;;;16.77;8.77;;;0.60;99.40;;;;;;5055437;28;20453;-54
2024/01/21 04:29:10;;;;;;;15.83;9.60;;;0.60;99.40;;;;;;5055036;28;20869;-53
2024/01/21 04:31:37;;;;;;;16.40;9.40;;;0.60;99.40;;;;;;5054859;28;20495;-53
2024/01/21 04:34:04;;;;;;;14.50;9.30;;;0.60;99.40;;;;;;5055385;28;20446;-53
2024/01/21 04:36:30;;;;;;;14.23;10.20;;;0.60;99.40;;;;;;5054781;28;20876;-53
2024/01/21 04:38:57;;;;;;;12.47;9.00;;;0.60;99.50;;;;;;5054967;28;20445;-53
2024/01/21 04:41:25;;;;;;;16.43;9.30;;;0.60;99.40;;;;;;5055034;28;20466;-54
2024/01/21 04:43:52;;;;;;;18.37;10.70;;;0.60;99.50;;;;;;5054822;28;20442;-53
2024/01/21 04:46:18;;;;;;;15.53;9.47;;;0.60;99.40;;;;;;5054873;28;20445;-53
2024/01/21 04:48:45;;;;;;;15.87;8.83;;;0.60;99.50;;;;;;5055598;28;20500;-53
2024/01/21 04:51:12;;;;;;;13.27;9.07;;;0.60;99.50;;;;;;5054647;28;21031;-54
2024/01/21 04:53:39;;;;;;;14.73;8.33;;;0.60;99.40;;;;;;5054214;28;20834;-53
2024/01/21 04:56:06;;;;;;;17.20;9.77;;;0.60;99.50;;;;;;5054560;28;20449;-53
2024/01/21 04:58:34;;;;;;;16.20;10.20;;;0.60;99.40;;;;;;5054901;28;20448;-53
2024/01/21 05:01:01;;;;;;;15.60;10.30;;;0.60;99.40;;;;;;5054516;28;20458;-53
2024/01/21 05:03:27;;;;;;;14.20;8.80;;;0.60;99.40;;;;;;5054572;28;20441;-54
2024/01/21 05:05:57;;;;;;;18.00;10.47;;;0.70;99.40;;;;;;5054529;28;20448;-53
2024/01/21 05:08:23;;;;;;;15.60;9.77;;;0.70;99.40;;;;;;5055149;28;20453;-53
2024/01/21 05:10:50;;;;;;;14.57;9.07;;;0.70;99.40;;;;;;5054467;28;20485;-53
2024/01/21 05:13:17;;;;;;;18.07;10.37;;;0.60;99.30;;;;;;5054248;28;20454;-53
2024/01/21 05:15:46;;;;;;;16.27;9.90;;;0.60;99.30;;;;;;5054273;28;20481;-53
2024/01/21 05:18:12;;;;;;;17.50;9.90;;;0.60;99.30;;;;;;5055349;28;20465;-53
2024/01/21 05:20:39;;;;;;;16.60;9.93;;;0.70;99.40;;;;;;5055632;28;20442;-54
2024/01/21 05:23:05;;;;;;;15.50;9.73;;;0.70;99.40;;;;;;5055847;28;20453;-53
2024/01/21 05:25:32;;;;;;;17.00;9.63;;;0.70;99.30;;;;;;5056166;28;20454;-53
2024/01/21 05:27:59;;;;;;;15.03;9.67;;;0.80;99.30;;;;;;5055861;28;20453;-53
2024/01/21 05:30:25;;;;;;;13.80;8.83;;;0.80;99.20;;;;;;5056805;28;20478;-53
2024/01/21 05:32:53;;;;;;;14.17;9.20;;;0.80;99.20;;;;;;5053790;28;20464;-54
2024/01/21 05:35:22;;;;;;;11.63;8.63;;;0.70;99.00;;;;;;5053847;28;20445;-54
2024/01/21 05:37:49;;;;;;;15.03;9.00;;;0.80;99.00;;;;;;5053360;28;20457;-54
2024/01/21 05:40:16;;;;;;;20.17;11.00;;;0.80;98.80;;;;;;5053718;28;20444;-54
2024/01/21 05:42:42;;;;;;;15.70;10.80;;;0.80;98.90;;;;;;5053643;28;20472;-54
2024/01/21 05:45:10;;;;;;;14.73;7.90;;;0.80;98.80;;;;;;5053670;28;20521;-53
2024/01/21 05:47:37;;;;;;;17.63;9.83;;;0.90;98.80;;;;;;5052963;28;20452;-54
2024/01/21 05:50:06;;;;;;;17.30;9.60;;;0.90;98.70;;;;;;5053301;28;20445;-54
2024/01/21 05:52:35;;;;;;;13.33;8.87;;;0.90;98.70;;;;;;5053112;28;20478;-54
2024/01/21 05:55:02;;;;;;;17.13;10.07;;;1.00;98.70;;;;;;5053463;28;20446;-53
2024/01/21 05:57:28;;;;;;;15.50;8.97;;;1.00;98.60;;;;;;5053500;28;20461;-54
2024/01/21 05:59:56;;;;;;;14.37;8.60;;;1.00;98.60;;;;;;5053430;28;20446;-53
2024/01/21 06:02:22;;;;;;;8.90;6.13;;;0.90;98.50;;;;;;5053210;28;20476;-54
2024/01/21 06:04:50;;;;;;;8.30;5.00;;;0.90;97.00;;;;;;5053473;28;20895;-54
2024/01/21 06:07:18;;;;;;;12.47;7.10;;;0.90;95.80;;;;;;5053664;28;20487;-54
2024/01/21 06:09:46;;;;;;;8.93;6.17;;;1.00;95.70;;;;;;5054567;28;20445;-54
2024/01/21 06:12:12;;;;;;;10.27;6.87;;;1.10;95.40;;;;;;5052952;28;20495;-54
2024/01/21 06:14:39;;;;;;;10.37;5.87;;;1.20;94.60;;;;;;5053307;28;20453;-54
2024/01/21 06:17:06;;;;;;;8.20;6.00;;;1.20;95.00;;;;;;5053407;28;20449;-53
2024/01/21 06:19:32;;;;;;;10.00;5.80;;;1.30;94.80;;;;;;5053251;28;20453;-54
2024/01/21 06:21:59;;;;;;;8.97;5.83;;;1.40;94.70;;;;;;5052995;28;20462;-54
2024/01/21 06:24:27;;;;;;;9.40;5.97;;;1.50;96.20;;;;;;5053074;28;20939;-54
2024/01/21 06:26:54;;;;;;;9.30;5.60;;;1.50;96.40;;;;;;5052995;28;20792;-54
2024/01/21 06:29:20;;;;;;;9.30;6.53;;;1.50;95.40;;;;;;5052986;28;20948;-54
2024/01/21 06:31:47;;;;;;;6.73;5.30;;;1.50;95.40;;;;;;5052461;28;20848;-53
2024/01/21 06:34:14;;;;;;;10.23;6.10;;;1.60;96.00;;;;;;5053045;28;20445;-54
2024/01/21 06:36:41;;;;;;;7.23;5.43;;;1.60;96.00;;;;;;5053386;28;20442;-54
2024/01/21 06:39:07;;;;;;;8.03;6.30;;;1.50;95.10;;;;;;5052791;28;20951;-54
2024/01/21 06:41:35;;;;;;;9.23;5.50;;;1.60;94.80;;;;;;5052940;28;20461;-54
2024/01/21 06:44:02;;;;;;;8.70;5.07;;;1.60;95.50;;;;;;5052847;28;20944;-54
2024/01/21 06:46:29;;;;;;;7.63;5.87;;;1.60;95.10;;;;;;5053048;28;20817;-54
2024/01/21 06:48:55;;;;;;;8.80;5.90;;;1.70;94.20;;;;;;5053021;28;20473;-54
2024/01/21 06:51:31;;;;;;;8.33;5.77;;;1.70;93.50;;;;;;5052380;28;20995;-55
2024/01/21 06:53:59;;;;;;;7.90;5.33;;;1.80;93.40;;;;;;5052539;28;20969;-54
2024/01/21 06:56:25;;;;;;;7.07;4.53;;;1.90;92.60;;;;;;5052523;28;20445;-54
2024/01/21 06:58:53;;;;;;;7.80;5.53;;;1.90;92.50;;;;;;5053932;28;20445;-54
2024/01/21 07:01:20;;;;;;;9.43;6.60;;;2.00;91.90;;;;;;5056671;28;20828;-54
2024/01/21 07:03:47;;;;;;;6.70;5.20;;;2.10;91.30;;;;;;5056404;28;20934;-54
2024/01/21 07:06:14;;;;;;;8.03;5.23;;;2.20;91.40;;;;;;5056537;28;20464;-55
2024/01/21 07:08:40;;;;;;;13.63;5.67;;;2.20;90.80;;;;;;5056667;28;20464;-55
2024/01/21 07:11:08;;;;;;;9.80;5.93;;;2.30;90.70;;;;;;5056293;28;20485;-55
2024/01/21 07:13:34;;;;;;;11.77;6.50;;;2.30;91.30;;;;;;5056325;28;20449;-55
2024/01/21 07:16:04;;;;;;;8.87;6.07;;;2.30;91.10;;;;;;5058296;28;20821;-56
2024/01/21 07:18:30;;;;;;;8.17;6.10;;;2.30;91.00;;;;;;5058301;28;20453;-56
2024/01/21 07:20:57;;;;;;;7.03;5.00;;;2.30;91.10;;;;;;5057843;28;20461;-56
2024/01/21 07:23:24;;;;;;;8.17;6.00;;;2.30;90.90;;;;;;5056896;28;20449;-56
2024/01/21 07:25:50;;;;;;;8.20;5.60;;;2.30;90.90;;;;;;5056633;28;20445;-56
2024/01/21 07:28:17;;;;;;;9.77;5.67;;;2.40;90.60;;;;;;5056642;28;20446;-56
2024/01/21 07:30:45;;;;;;;9.40;5.73;;;2.40;90.70;;;;;;5056588;28;20485;-55
2024/01/21 07:33:13;;;;;;;12.47;6.60;;;2.50;90.70;;;;;;5056042;28;20873;-56
2024/01/21 07:35:39;;;;;;;9.33;5.20;;;2.50;90.50;;;;;;5056142;28;20457;-55
2024/01/21 07:38:07;;;;;;;12.77;6.23;;;2.40;90.70;;;;;;5056276;28;20457;-55
2024/01/21 07:40:34;;;;;;;7.33;5.47;;;2.50;90.80;;;;;;5055936;28;20525;-55
2024/01/21 07:43:00;;;;;;;9.63;6.67;;;2.40;91.00;;;;;;5056037;28;20456;-55
2024/01/21 07:45:27;;;;;;;9.00;5.80;;;2.40;91.20;;;;;;5055959;28;20492;-55
2024/01/21 07:47:54;;;;;;;8.10;5.50;;;2.50;91.10;;;;;;5055936;28;20469;-55
2024/01/21 07:50:22;;;;;;;7.93;6.07;;;2.50;90.80;;;;;;5055984;28;20449;-55
2024/01/21 07:52:48;;;;;;;7.93;5.90;;;2.40;90.70;;;;;;5055372;28;20481;-55
2024/01/21 07:55:16;;;;;;;8.17;6.10;;;2.50;90.90;;;;;;5055810;28;20473;-55
2024/01/21 07:57:43;;;;;;;9.10;6.10;;;2.50;91.50;;;;;;5055834;28;20453;-55
2024/01/21 08:00:10;;;;;;;8.23;5.80;;;2.40;91.60;;;;;;5055732;28;20449;-55
2024/01/21 08:02:37;;;;;;;7.33;6.10;;;2.50;91.70;;;;;;5055585;28;20469;-55
2024/01/21 08:05:05;;;;;;;8.10;5.73;;;2.50;90.70;;;;;;5055538;28;20450;-55
2024/01/21 08:07:33;;;;;;;8.43;5.50;;;2.50;91.00;;;;;;5055591;28;20906;-55
2024/01/21 08:09:59;;;;;;;8.80;6.00;;;2.50;90.80;;;;;;5054725;28;20951;-55
2024/01/21 08:12:27;;;;;;;6.73;5.57;;;2.60;90.30;;;;;;5054840;28;20488;-55
2024/01/21 08:14:53;;;;;;;6.53;5.47;;;2.60;89.00;;;;;;5055243;28;20449;-55
2024/01/21 08:17:21;;;;;;;9.10;5.60;;;2.60;89.90;;;;;;5055012;28;20965;-56
2024/01/21 08:19:48;;;;;;;8.90;7.27;;;2.60;88.90;;;;;;5055341;28;20456;-55
2024/01/21 08:22:14;;;;;;;9.00;6.47;;;2.70;89.10;;;;;;5054866;28;20457;-55
2024/01/21 08:24:42;;;;;;;9.73;6.63;;;2.70;88.70;;;;;;5055267;28;20453;-56
2024/01/21 08:27:08;;;;;;;6.80;5.47;;;2.80;88.80;;;;;;5055206;28;20458;-55
2024/01/21 08:29:36;;;;;;;7.40;5.37;;;2.70;89.80;;;;;;5055165;28;20456;-55
2024/01/21 08:32:06;;;;;;;9.27;5.97;;;2.70;87.90;;;;;;5054860;28;20542;-55
2024/01/21 08:34:33;;;;;;;8.67;5.80;;;2.80;86.50;;;;;;5054950;28;20450;-55
2024/01/21 08:36:59;;;;;;;10.73;5.90;;;2.80;88.40;;;;;;5054916;28;20449;-55
2024/01/21 08:39:26;;;;;;;11.73;6.13;;;2.80;88.50;;;;;;5054924;28;20441;-55
2024/01/21 08:41:54;;;;;;;8.00;6.03;;;2.80;88.00;;;;;;5054793;28;20457;-55
2024/01/21 08:44:21;;;;;;;10.20;6.43;;;2.80;87.00;;;;;;5054934;28;20442;-56
2024/01/21 08:46:48;;;;;;;12.33;6.67;;;2.90;85.90;;;;;;5054807;28;20468;-56
2024/01/21 08:49:15;;;;;;;10.20;7.10;;;2.90;85.60;;;;;;5054612;28;20537;-55
2024/01/21 08:51:42;;;;;;;11.20;6.57;;;2.90;86.50;;;;;;5054218;28;20477;-55
2024/01/21 08:54:09;;;;;;;11.40;8.10;;;3.00;86.10;;;;;;5054489;28;20441;-55
2024/01/21 08:56:36;;;;;;;9.20;6.40;;;3.00;87.40;;;;;;5054437;28;20822;-55
2024/01/21 08:59:04;;;;;;;10.27;6.00;;;3.00;88.50;;;;;;5054553;28;20480;-55
2024/01/21 09:01:31;;;;;;;10.93;7.80;;;3.10;88.40;;;;;;5054202;28;21006;-55
2024/01/21 09:03:57;;;;;;;8.43;7.27;;;3.10;86.80;;;;;;5054612;28;20444;-55
2024/01/21 09:06:24;;;;;;;10.67;7.47;;;3.30;86.00;;;;;;5054233;28;20954;-55
2024/01/21 09:08:53;;;;;;;10.70;6.83;;;3.20;87.50;;;;;;5054386;28;20858;-56
2024/01/21 09:11:21;;;;;;;9.43;7.47;;;3.20;88.20;;;;;;5054233;28;20596;-56
2024/01/21 09:13:48;;;;;;;11.87;7.93;;;3.30;86.90;;;;;;5054196;28;20884;-56
2024/01/21 09:16:19;;;;;;;13.20;8.60;;;3.30;86.80;;;;;;5054322;28;20438;-56
2024/01/21 09:18:46;;;;;;;16.23;8.77;;;3.10;87.70;;;;;;5054130;28;20430;-57
2024/01/21 09:21:13;;;;;;;17.30;10.17;;;3.10;89.10;;;;;;5054708;28;20813;-58
2024/01/21 09:23:39;;;;;;;17.47;9.20;;;3.20;87.10;;;;;;5053292;28;20912;-58
2024/01/21 09:26:06;;;;;;;12.80;7.60;;;3.20;87.30;;;;;;5054051;28;20803;-58
2024/01/21 09:28:35;;;;;;;9.50;7.80;;;3.30;87.10;;;;;;5054181;28;20445;-58
2024/01/21 09:31:02;;;;;;;13.33;8.40;;;3.30;85.80;;;;;;5053901;28;20465;-58
2024/01/21 09:33:30;;;;;;;13.60;8.10;;;3.40;84.20;;;;;;5053511;28;20818;-58
2024/01/21 09:35:57;;;;;;;10.53;7.23;;;3.50;84.10;;;;;;5054096;28;20450;-59
2024/01/21 09:38:24;;;;;;;9.47;7.53;;;3.60;84.60;;;;;;5054178;28;20445;-58
2024/01/21 09:40:58;;;;;;;10.00;6.23;;;3.60;82.20;;;;;;5053897;28;20491;-58
2024/01/21 09:43:28;;;;;;;10.97;7.03;;;3.70;82.40;;;;;;5053688;28;20421;-58
2024/01/21 09:45:56;;;;;;;25.33;8.77;;;3.80;82.30;;;;;;5053844;28;20441;-59
2024/01/21 09:48:23;;;;;;;10.47;7.43;;;3.80;82.30;;;;;;5054446;28;20438;-58
2024/01/21 09:50:52;;;;;;;9.07;7.10;;;3.80;81.30;;;;;;5053740;28;20484;-59
2024/01/21 09:53:19;;;;;;;10.57;6.50;;;3.80;82.20;;;;;;5053066;28;20532;-59
2024/01/21 09:55:54;;;;;;;12.13;7.57;;;3.80;83.60;;;;;;5053591;28;20453;-59
2024/01/21 09:58:21;;;;;;;13.13;7.27;;;3.80;83.70;;;;;;5053585;28;20417;-59
2024/01/21 10:00:49;;;;;;;10.80;7.83;;;3.90;82.30;;;;;;5053372;28;20495;-59
2024/01/21 10:03:16;;;;;;;9.63;6.10;;;3.90;83.40;;;;;;5053199;28;20448;-59
2024/01/21 10:05:43;;;;;;;10.50;7.20;;;3.90;84.50;;;;;;5053008;28;20874;-59
2024/01/21 10:08:13;;;;;;;12.10;8.00;;;3.90;85.40;;;;;;5053396;28;20466;-59
2024/01/21 10:10:43;;;;;;;17.47;8.50;;;3.90;85.50;;;;;;5053189;28;20840;-59
2024/01/21 10:13:09;;;;;;;17.03;9.67;;;4.00;84.60;;;;;;5053068;28;20482;-59
2024/01/21 10:15:36;;;;;;;15.87;8.70;;;4.00;86.10;;;;;;5053147;28;20441;-59
2024/01/21 10:18:03;;;;;;;10.07;7.23;;;4.00;86.80;;;;;;5052959;28;20962;-60
2024/01/21 10:20:30;;;;;;;10.60;7.20;;;4.00;87.30;;;;;;5053145;28;20817;-59
2024/01/21 10:23:09;;;;;;;16.20;7.70;;;4.00;88.20;;;;;;5052914;28;20936;-60
2024/01/21 10:25:38;;;;;;;13.07;8.53;;;4.10;88.20;;;;;;5053159;28;20430;-59
2024/01/21 10:28:05;;;;;;;12.47;7.10;;;4.10;88.80;;;;;;5053223;28;20441;-59
2024/01/21 10:30:32;;;;;;;10.17;6.80;;;4.10;88.90;;;;;;5053542;28;20540;-60
2024/01/21 10:33:00;;;;;;;10.47;8.60;;;4.10;89.30;;;;;;5053446;28;20488;-60
2024/01/21 10:35:27;;;;;;;17.47;15.50;;;4.10;90.10;;;;;;5057367;28;20437;-60
2024/01/21 10:37:53;;;;;;;12.87;7.40;;;4.20;90.20;;;;;;5057869;28;20449;-60
2024/01/21 10:40:20;;;;;;;7.60;6.00;;;4.30;90.40;;;;;;5057733;28;20446;-59
2024/01/21 10:42:55;;;;;;;12.30;7.57;;;4.30;90.80;;;;;;5057297;28;20469;-60
2024/01/21 10:45:22;;;;;;;7.77;6.07;;;4.40;90.50;;;;;;5056890;28;20849;-59
2024/01/21 10:47:52;;;;;;;7.30;6.13;;;4.40;90.90;;;;;;5057165;28;20449;-60
2024/01/21 10:50:20;;;;;;;11.27;6.73;;;4.30;91.40;;;;;;5057025;28;20472;-60
2024/01/21 10:52:49;;;;;;;9.07;6.73;;;4.30;91.60;;;;;;5056672;28;20493;-60
2024/01/21 10:55:16;;;;;;;9.40;6.67;;;4.40;91.80;;;;;;5056795;28;20519;-60
2024/01/21 10:57:43;;;;;;;24.13;5.67;;;4.30;92.20;;;;;;5056651;28;20440;-60
2024/01/21 11:00:12;;;;;;;9.53;6.67;;;4.40;92.40;;;;;;5056616;28;20503;-60
2024/01/21 11:02:39;;;;;;;7.47;6.23;;;4.40;92.50;;;;;;5056740;28;20468;-60
2024/01/21 11:05:06;;;;;;;7.10;5.87;;;4.30;92.30;;;;;;5056488;28;20442;-60
2024/01/21 11:07:33;;;;;;;13.23;7.00;;;4.30;92.40;;;;;;5056519;28;20531;-60
2024/01/21 11:10:03;;;;;;;8.83;6.90;;;4.30;92.20;;;;;;5056572;28;20457;-60
2024/01/21 11:12:30;;;;;;;14.50;7.77;;;4.30;92.60;;;;;;5056322;28;20580;-60
2024/01/21 11:14:57;;;;;;;13.37;7.80;;;4.30;92.20;;;;;;5056364;28;20449;-60
2024/01/21 11:17:25;;;;;;;10.77;9.30;;;4.30;92.20;;;;;;5056466;28;20454;-60
2024/01/21 11:19:52;;;;;;;12.60;8.37;;;4.30;92.00;;;;;;5056503;28;20445;-60
2024/01/21 11:22:21;;;;;;;12.77;7.70;;;4.30;91.70;;;;;;5056344;28;20468;-59
2024/01/21 11:24:51;;;;;;;12.03;7.70;;;4.30;92.00;;;;;;5056295;28;20441;-59
2024/01/21 11:27:19;;;;;;;10.40;7.20;;;4.20;92.20;;;;;;5056503;28;20445;-60
2024/01/21 11:29:48;;;;;;;11.30;7.70;;;4.20;92.50;;;;;;5055855;28;20445;-60
2024/01/21 11:32:16;;;;;;;11.60;8.07;;;4.10;92.70;;;;;;5055719;28;20983;-60
2024/01/21 11:34:45;;;;;;;10.20;7.40;;;4.20;92.90;;;;;;5056029;28;20475;-60
2024/01/21 11:37:14;;;;;;;14.07;8.27;;;4.20;93.30;;;;;;5056100;28;20457;-60
2024/01/21 11:39:42;;;;;;;9.80;6.90;;;4.20;93.80;;;;;;5055983;28;20511;-60
2024/01/21 11:42:09;;;;;;;9.37;7.13;;;4.10;94.30;;;;;;5055852;28;20469;-60
2024/01/21 11:44:37;;;;;;;10.57;6.90;;;4.10;94.80;;;;;;5055946;28;20441;-60
2024/01/21 11:47:05;;;;;;;12.70;6.77;;;4.20;95.30;;;;;;5055372;28;20445;-60
2024/01/21 11:49:34;;;;;;;7.40;6.33;;;4.20;96.30;;;;;;5056071;28;20450;-60
2024/01/21 11:52:05;;;;;;;14.30;7.23;;;4.30;97.70;;;;;;5055632;28;20492;-60
2024/01/21 11:54:32;;;;;;;6.83;5.13;;;4.30;98.60;;;;;;5055945;28;20446;-60
2024/01/21 11:57:00;;;;;;;6.67;5.60;;;4.40;99.90;;;;;;5055556;28;20449;-60
2024/01/21 11:59:26;;;;;;;9.60;6.10;;;4.50;99.90;;;;;;5055589;28;20445;-60
2024/01/21 12:01:56;;;;;;;13.90;7.57;;;4.50;99.90;;;;;;5055448;28;20472;-60
2024/01/21 12:04:24;;;;;;;11.80;8.17;;;4.60;99.90;;;;;;5056585;28;20491;-60
2024/01/21 12:06:52;;;;;;;10.50;6.40;;;4.60;99.90;;;;;;5055403;28;20441;-60
2024/01/21 12:09:21;;;;;;;8.73;6.47;;;4.60;99.90;;;;;;5055377;28;20816;-60
2024/01/21 12:11:50;;;;;;;10.43;6.87;;;4.60;99.90;;;;;;5055303;28;20863;-60
2024/01/21 12:14:17;;;;;;;8.50;7.30;;;4.70;99.90;;;;;;5055215;28;20469;-60
2024/01/21 12:16:44;;;;;;;10.60;7.17;;;4.70;99.90;;;;;;5055513;28;20441;-60
2024/01/21 12:19:12;;;;;;;10.10;5.70;;;4.80;99.90;;;;;;5055340;28;20448;-60
2024/01/21 12:21:38;;;;;;;6.97;4.90;;;4.80;99.90;;;;;;5054845;28;21010;-60
2024/01/21 12:24:07;;;;;;;8.93;6.10;;;4.90;99.90;;;;;;5055135;28;20552;-60
2024/01/21 12:26:35;;;;;;;9.67;6.90;;;5.00;99.90;;;;;;5055092;28;20450;-60
2024/01/21 12:29:02;;;;;;;9.60;7.30;;;5.00;99.90;;;;;;5055034;28;20815;-60
2024/01/21 12:31:31;;;;;;;10.43;6.80;;;5.00;99.90;;;;;;5054925;28;20892;-60
2024/01/21 12:33:58;;;;;;;7.63;5.87;;;5.00;99.90;;;;;;5054769;28;20477;-60
2024/01/21 12:36:25;;;;;;;10.43;6.80;;;5.00;99.90;;;;;;5054777;28;20446;-61
2024/01/21 12:38:54;;;;;;;10.10;6.97;;;5.00;99.90;;;;;;5054932;28;20484;-61
2024/01/21 12:41:21;;;;;;;12.93;7.67;;;5.10;99.90;;;;;;5054380;28;21018;-61
2024/01/21 12:43:50;;;;;;;7.50;5.67;;;5.20;99.90;;;;;;5054846;28;20445;-61
2024/01/21 12:46:18;;;;;;;9.83;7.00;;;5.20;99.90;;;;;;5054734;28;20446;-62
2024/01/21 12:48:45;;;;;;;6.60;5.80;;;5.30;99.90;;;;;;5054647;28;20538;-62